createdAt,value
2019-05-22T00:00:47.582Z,14.12
2019-05-22T00:01:47.588Z,14.09
2019-05-22T00:02:47.599Z,14.02
2019-05-22T00:03:47.608Z,13.94
2019-05-22T00:04:47.611Z,14.08
2019-05-22T00:05:47.626Z,13.98
2019-05-22T00:06:47.647Z,14.09
2019-05-22T00:07:47.786Z,13.99
2019-05-22T00:08:47.643Z,14.09
2019-05-22T00:09:47.652Z,14.04
2019-05-22T00:10:47.662Z,14.06
2019-05-22T00:11:47.666Z,13.96
2019-05-22T00:12:47.669Z,14.06
2019-05-22T00:13:47.681Z,14.04
2019-05-22T00:14:47.684Z,14.01
2019-05-22T00:15:47.691Z,14.04
2019-05-22T00:16:47.705Z,13.98
2019-05-22T00:17:47.817Z,13.98
2019-05-22T00:18:47.715Z,14.01
2019-05-22T00:19:47.728Z,13.96
2019-05-22T00:20:47.751Z,13.94
2019-05-22T00:21:47.733Z,14.12
2019-05-22T00:22:47.749Z,13.99
2019-05-22T00:23:47.765Z,13.94
2019-05-22T00:24:47.765Z,14.01
2019-05-22T00:25:47.766Z,14.06
2019-05-22T00:26:47.777Z,14.04
2019-05-22T00:27:47.785Z,14.09
2019-05-22T00:28:47.788Z,13.94
2019-05-22T00:29:47.820Z,13.96
2019-05-22T00:30:47.794Z,14.05
2019-05-22T00:31:47.802Z,13.98
2019-05-22T00:32:47.822Z,14.06
2019-05-22T00:33:47.830Z,14.05
2019-05-22T00:34:47.836Z,14.05
2019-05-22T00:35:47.854Z,13.98
2019-05-22T00:36:47.849Z,13.93
2019-05-22T00:37:47.863Z,13.98
2019-05-22T00:38:47.857Z,13.91
2019-05-22T00:39:47.876Z,13.98
2019-05-22T00:40:47.893Z,13.98
2019-05-22T00:41:47.893Z,13.91
2019-05-22T00:43:02.874Z,14.01
2019-05-22T00:43:47.907Z,13.91
2019-05-22T00:44:47.922Z,13.99
2019-05-22T00:45:47.909Z,13.91
2019-05-22T00:46:47.919Z,13.87
2019-05-22T00:47:47.932Z,13.98
2019-05-22T00:48:47.934Z,13.88
2019-05-22T00:49:47.943Z,13.90
2019-05-22T00:50:47.955Z,13.90
2019-05-22T00:51:47.964Z,13.86
2019-05-22T00:52:47.970Z,13.88
2019-05-22T00:53:47.987Z,13.93
2019-05-22T00:54:47.982Z,13.98
2019-05-22T00:55:48.010Z,13.80
2019-05-22T00:56:47.996Z,13.80
2019-05-22T00:57:48.007Z,13.81
2019-05-22T00:58:48.017Z,13.76
2019-05-22T00:59:48.019Z,13.83
2019-05-22T01:00:48.031Z,13.80
2019-05-22T01:01:48.031Z,13.86
2019-05-22T01:02:48.043Z,13.76
2019-05-22T01:03:48.048Z,13.83
2019-05-22T01:04:48.060Z,13.81
2019-05-22T01:05:48.068Z,13.81
2019-05-22T01:06:48.082Z,13.80
2019-05-22T01:07:48.078Z,13.80
2019-05-22T01:08:48.086Z,13.81
2019-05-22T01:09:48.096Z,13.76
2019-05-22T01:10:48.098Z,13.80
2019-05-22T01:11:48.176Z,13.83
2019-05-22T01:12:48.107Z,13.83
2019-05-22T01:13:48.132Z,13.81
2019-05-22T01:14:48.132Z,13.83
2019-05-22T01:15:48.137Z,13.79
2019-05-22T01:16:48.160Z,13.72
2019-05-22T01:17:48.156Z,13.83
2019-05-22T01:18:48.161Z,13.84
2019-05-22T01:19:48.163Z,13.88
2019-05-22T01:20:48.175Z,13.80
2019-05-22T01:21:48.185Z,13.76
2019-05-22T01:22:48.202Z,13.73
2019-05-22T01:23:48.195Z,13.73
2019-05-22T01:24:48.217Z,13.71
2019-05-22T01:25:48.224Z,13.75
2019-05-22T01:26:48.297Z,13.72
2019-05-22T01:27:48.240Z,13.68
2019-05-22T01:28:48.226Z,13.66
2019-05-22T01:29:48.247Z,13.68
2019-05-22T01:30:48.248Z,13.66
2019-05-22T01:31:48.268Z,13.69
2019-05-22T01:32:48.269Z,13.62
2019-05-22T01:33:48.264Z,13.61
2019-05-22T01:34:48.287Z,13.69
2019-05-22T01:35:48.275Z,13.68
2019-05-22T01:36:48.285Z,13.65
2019-05-22T01:37:48.312Z,13.61
2019-05-22T01:38:48.306Z,13.68
2019-05-22T01:39:48.371Z,13.66
2019-05-22T01:40:48.318Z,13.65
2019-05-22T01:41:48.332Z,13.63
2019-05-22T01:42:48.330Z,13.62
2019-05-22T01:43:48.337Z,13.54
2019-05-22T01:45:01.630Z,13.65
2019-05-22T01:45:48.360Z,13.55
2019-05-22T01:46:48.365Z,13.55
2019-05-22T01:47:48.378Z,13.57
2019-05-22T01:48:48.384Z,13.63
2019-05-22T01:49:48.496Z,13.50
2019-05-22T01:50:48.393Z,13.50
2019-05-22T01:51:48.400Z,13.65
2019-05-22T01:52:48.413Z,13.57
2019-05-22T01:53:48.417Z,13.54
2019-05-22T01:54:48.425Z,13.63
2019-05-22T01:55:48.428Z,13.63
2019-05-22T01:56:48.448Z,13.62
2019-05-22T01:57:48.451Z,13.65
2019-05-22T01:58:48.452Z,13.65
2019-05-22T01:59:48.579Z,13.68
2019-05-22T02:00:48.464Z,13.69
2019-05-22T02:01:48.522Z,13.59
2019-05-22T02:02:48.476Z,13.63
2019-05-22T02:03:48.492Z,13.62
2019-05-22T02:04:48.489Z,13.69
2019-05-22T02:05:48.506Z,13.61
2019-05-22T02:06:48.511Z,13.61
2019-05-22T02:07:48.521Z,13.53
2019-05-22T02:08:48.522Z,13.54
2019-05-22T02:09:48.541Z,13.59
2019-05-22T02:10:48.541Z,13.55
2019-05-22T02:11:48.547Z,13.57
2019-05-22T02:12:48.552Z,13.53
2019-05-22T02:13:48.562Z,13.61
2019-05-22T02:14:48.571Z,13.57
2019-05-22T02:15:48.572Z,13.57
2019-05-22T02:16:56.665Z,13.55
2019-05-22T02:17:48.694Z,13.62
2019-05-22T02:18:48.588Z,13.57
2019-05-22T02:19:48.615Z,13.54
2019-05-22T02:20:49.594Z,13.59
2019-05-22T02:21:48.621Z,13.54
2019-05-22T02:22:48.630Z,13.43
2019-05-22T02:23:48.633Z,13.43
2019-05-22T02:24:48.637Z,13.46
2019-05-22T02:25:48.644Z,13.50
2019-05-22T02:26:48.663Z,13.46
2019-05-22T02:27:48.689Z,13.54
2019-05-22T02:28:48.671Z,13.54
2019-05-22T02:29:48.677Z,13.46
2019-05-22T02:30:48.688Z,13.50
2019-05-22T02:31:48.700Z,13.48
2019-05-22T02:32:48.699Z,13.44
2019-05-22T02:33:48.704Z,13.51
2019-05-22T02:34:48.717Z,13.44
2019-05-22T02:35:48.721Z,13.47
2019-05-22T02:36:48.727Z,13.50
2019-05-22T02:37:48.733Z,13.43
2019-05-22T02:38:48.744Z,13.46
2019-05-22T02:39:48.747Z,13.51
2019-05-22T02:40:48.740Z,13.50
2019-05-22T02:41:48.767Z,13.43
2019-05-22T02:42:48.773Z,13.59
2019-05-22T02:43:48.785Z,13.46
2019-05-22T02:44:48.828Z,13.48
2019-05-22T02:45:48.791Z,13.46
2019-05-22T02:46:48.800Z,13.44
2019-05-22T02:47:48.805Z,13.47
2019-05-22T02:48:48.812Z,13.47
2019-05-22T02:49:48.822Z,13.46
2019-05-22T02:50:48.884Z,13.51
2019-05-22T02:51:48.836Z,13.47
2019-05-22T02:52:48.841Z,13.38
2019-05-22T02:53:48.883Z,13.35
2019-05-22T02:54:48.858Z,13.41
2019-05-22T02:55:48.895Z,13.41
2019-05-22T02:56:48.868Z,13.36
2019-05-22T02:57:48.878Z,13.36
2019-05-22T02:58:48.886Z,13.35
2019-05-22T02:59:48.896Z,13.32
2019-05-22T03:00:48.893Z,13.38
2019-05-22T03:01:48.903Z,13.27
2019-05-22T03:02:48.909Z,13.35
2019-05-22T03:03:48.914Z,13.35
2019-05-22T03:04:48.930Z,13.35
2019-05-22T03:05:49.014Z,13.38
2019-05-22T03:06:48.951Z,13.31
2019-05-22T03:07:48.948Z,13.35
2019-05-22T03:08:48.953Z,13.44
2019-05-22T03:09:48.959Z,13.41
2019-05-22T03:10:48.972Z,13.29
2019-05-22T03:11:48.980Z,13.41
2019-05-22T03:12:48.993Z,13.43
2019-05-22T03:13:48.995Z,13.38
2019-05-22T03:14:49.051Z,13.36
2019-05-22T03:15:49.002Z,13.29
2019-05-22T03:16:49.012Z,13.36
2019-05-22T03:17:49.014Z,13.25
2019-05-22T03:19:07.598Z,13.27
2019-05-22T03:19:49.052Z,13.25
2019-05-22T03:20:49.116Z,13.24
2019-05-22T03:21:49.049Z,13.29
2019-05-22T03:22:49.050Z,13.32
2019-05-22T03:23:49.059Z,13.36
2019-05-22T03:24:49.071Z,13.36
2019-05-22T03:25:49.077Z,13.17
2019-05-22T03:26:49.079Z,13.29
2019-05-22T03:27:49.101Z,13.25
2019-05-22T03:28:49.110Z,13.24
2019-05-22T03:29:49.101Z,13.13
2019-05-22T03:30:49.115Z,13.17
2019-05-22T03:31:49.118Z,13.12
2019-05-22T03:32:49.130Z,13.14
2019-05-22T03:33:49.131Z,13.12
2019-05-22T03:34:49.138Z,13.03
2019-05-22T03:35:49.164Z,13.10
2019-05-22T03:36:49.154Z,13.01
2019-05-22T03:37:49.158Z,13.10
2019-05-22T03:38:49.168Z,13.07
2019-05-22T03:39:49.173Z,13.04
2019-05-22T03:40:49.182Z,12.99
2019-05-22T03:41:49.209Z,12.96
2019-05-22T03:42:49.196Z,12.92
2019-05-22T03:43:49.202Z,12.98
2019-05-22T03:44:49.210Z,13.04
2019-05-22T03:45:49.218Z,12.99
2019-05-22T03:46:49.217Z,12.99
2019-05-22T03:47:49.230Z,12.99
2019-05-22T03:48:49.250Z,12.94
2019-05-22T03:49:49.241Z,12.96
2019-05-22T03:50:49.252Z,12.94
2019-05-22T03:51:49.252Z,12.91
2019-05-22T03:52:49.268Z,12.96
2019-05-22T03:53:49.267Z,12.99
2019-05-22T03:54:49.281Z,12.92
2019-05-22T03:55:49.292Z,13.01
2019-05-22T03:56:49.352Z,13.03
2019-05-22T03:57:49.300Z,13.03
2019-05-22T03:58:49.316Z,12.98
2019-05-22T03:59:49.321Z,12.98
2019-05-22T04:00:49.313Z,12.99
2019-05-22T04:01:49.322Z,13.03
2019-05-22T04:02:49.331Z,13.01
2019-05-22T04:03:49.338Z,13.03
2019-05-22T04:04:49.357Z,12.99
2019-05-22T04:05:49.364Z,13.01
2019-05-22T04:06:49.351Z,13.06
2019-05-22T04:07:49.369Z,13.09
2019-05-22T04:08:49.381Z,13.01
2019-05-22T04:09:49.380Z,13.10
2019-05-22T04:10:49.387Z,13.07
2019-05-22T04:11:49.397Z,13.14
2019-05-22T04:12:49.406Z,13.12
2019-05-22T04:13:49.415Z,13.13
2019-05-22T04:14:49.434Z,13.13
2019-05-22T04:15:49.425Z,13.10
2019-05-22T04:16:49.436Z,13.17
2019-05-22T04:17:49.438Z,13.03
2019-05-22T04:18:49.436Z,13.03
2019-05-22T04:19:51.661Z,13.03
2019-05-22T04:20:49.459Z,13.04
2019-05-22T04:21:49.467Z,13.13
2019-05-22T04:22:49.470Z,13.09
2019-05-22T04:23:49.480Z,13.14
2019-05-22T04:24:49.489Z,13.12
2019-05-22T04:25:53.162Z,13.19
2019-05-22T04:26:49.497Z,13.10
2019-05-22T04:27:49.510Z,13.14
2019-05-22T04:28:49.513Z,13.07
2019-05-22T04:29:49.565Z,13.06
2019-05-22T04:30:49.546Z,13.06
2019-05-22T04:31:49.540Z,12.92
2019-05-22T04:32:49.541Z,12.95
2019-05-22T04:33:49.554Z,12.91
2019-05-22T04:34:49.559Z,12.96
2019-05-22T04:35:49.562Z,12.92
2019-05-22T04:36:49.572Z,12.89
2019-05-22T04:37:49.582Z,12.91
2019-05-22T04:38:49.584Z,12.95
2019-05-22T04:39:49.584Z,12.92
2019-05-22T04:40:49.625Z,12.94
2019-05-22T04:41:49.602Z,12.98
2019-05-22T04:42:49.618Z,12.87
2019-05-22T04:43:49.628Z,12.84
2019-05-22T04:44:49.634Z,12.92
2019-05-22T04:45:49.635Z,12.95
2019-05-22T04:46:49.639Z,12.89
2019-05-22T04:47:49.650Z,12.89
2019-05-22T04:48:49.651Z,12.96
2019-05-22T04:50:06.213Z,12.99
2019-05-22T04:50:49.683Z,12.98
2019-05-22T04:51:49.675Z,12.98
2019-05-22T04:52:49.680Z,13.10
2019-05-22T04:53:49.689Z,13.07
2019-05-22T04:54:52.496Z,13.06
2019-05-22T04:55:49.702Z,13.04
2019-05-22T04:56:49.720Z,12.96
2019-05-22T04:57:49.721Z,12.91
2019-05-22T04:58:49.719Z,12.89
2019-05-22T04:59:49.729Z,12.84
2019-05-22T05:00:49.734Z,12.89
2019-05-22T05:01:49.741Z,12.81
2019-05-22T05:02:49.753Z,12.89
2019-05-22T05:03:49.747Z,12.99
2019-05-22T05:04:49.772Z,12.99
2019-05-22T05:05:49.776Z,13.04
2019-05-22T05:06:49.891Z,13.07
2019-05-22T05:07:49.776Z,13.10
2019-05-22T05:08:49.795Z,13.10
2019-05-22T05:09:49.798Z,13.10
2019-05-22T05:10:49.850Z,13.12
2019-05-22T05:11:49.811Z,13.12
2019-05-22T05:12:49.821Z,13.16
2019-05-22T05:13:49.821Z,13.13
2019-05-22T05:14:49.841Z,13.10
2019-05-22T05:15:49.839Z,13.12
2019-05-22T05:16:49.846Z,13.13
2019-05-22T05:17:49.856Z,13.14
2019-05-22T05:18:49.863Z,13.16
2019-05-22T05:19:49.875Z,13.21
2019-05-22T05:20:49.932Z,13.14
2019-05-22T05:21:49.889Z,12.95
2019-05-22T05:22:49.892Z,12.98
2019-05-22T05:23:49.911Z,12.95
2019-05-22T05:24:49.897Z,12.80
2019-05-22T05:25:49.914Z,12.95
2019-05-22T05:26:49.921Z,12.98
2019-05-22T05:27:49.932Z,13.01
2019-05-22T05:28:49.944Z,12.99
2019-05-22T05:29:49.942Z,13.04
2019-05-22T05:30:49.953Z,13.04
2019-05-22T05:31:49.949Z,13.04
2019-05-22T05:32:49.962Z,13.04
2019-05-22T05:33:49.969Z,13.04
2019-05-22T05:34:49.975Z,13.04
2019-05-22T05:35:49.984Z,13.06
2019-05-22T05:36:49.992Z,13.07
2019-05-22T05:37:49.996Z,13.13
2019-05-22T05:38:49.989Z,13.21
2019-05-22T05:39:50.011Z,13.17
2019-05-22T05:40:50.018Z,13.36
2019-05-22T05:41:50.018Z,13.27
2019-05-22T05:42:50.032Z,13.27
2019-05-22T05:43:50.032Z,13.32
2019-05-22T05:44:50.045Z,13.32
2019-05-22T05:45:50.056Z,13.36
2019-05-22T05:46:50.057Z,13.25
2019-05-22T05:47:50.065Z,13.29
2019-05-22T05:48:50.073Z,13.24
2019-05-22T05:49:50.074Z,13.27
2019-05-22T05:50:50.095Z,13.25
2019-05-22T05:51:50.086Z,13.24
2019-05-22T05:52:50.102Z,13.28
2019-05-22T05:53:50.105Z,13.07
2019-05-22T05:54:50.117Z,13.14
2019-05-22T05:55:50.124Z,13.14
2019-05-22T05:56:50.133Z,13.09
2019-05-22T05:57:50.137Z,13.06
2019-05-22T05:58:50.150Z,13.13
2019-05-22T05:59:50.154Z,13.16
2019-05-22T06:00:50.167Z,13.10
2019-05-22T06:01:50.176Z,13.06
2019-05-22T06:02:56.637Z,13.12
2019-05-22T06:03:50.178Z,13.12
2019-05-22T06:04:50.186Z,13.21
2019-05-22T06:05:50.197Z,13.25
2019-05-22T06:06:50.207Z,13.21
2019-05-22T06:07:50.205Z,13.16
2019-05-22T06:08:50.220Z,13.17
2019-05-22T06:09:50.221Z,13.21
2019-05-22T06:10:50.242Z,13.19
2019-05-22T06:11:50.295Z,13.21
2019-05-22T06:12:50.269Z,13.38
2019-05-22T06:13:50.252Z,13.35
2019-05-22T06:14:50.267Z,13.38
2019-05-22T06:15:50.284Z,13.35
2019-05-22T06:16:50.279Z,13.47
2019-05-22T06:17:50.281Z,13.53
2019-05-22T06:18:50.290Z,13.54
2019-05-22T06:19:50.303Z,13.55
2019-05-22T06:21:03.259Z,13.61
2019-05-22T06:21:50.312Z,13.65
2019-05-22T06:22:50.321Z,13.66
2019-05-22T06:23:50.327Z,13.71
2019-05-22T06:24:50.337Z,13.68
2019-05-22T06:25:50.343Z,13.75
2019-05-22T06:26:50.365Z,13.86
2019-05-22T06:27:50.371Z,13.75
2019-05-22T06:28:50.366Z,13.83
2019-05-22T06:29:50.367Z,13.80
2019-05-22T06:31:50.393Z,13.76
2019-05-22T06:32:50.396Z,13.79
2019-05-22T06:33:50.402Z,13.79
2019-05-22T06:34:50.414Z,13.84
2019-05-22T06:35:50.435Z,13.80
2019-05-22T06:36:50.434Z,13.81
2019-05-22T06:37:50.437Z,13.83
2019-05-22T06:38:50.446Z,13.80
2019-05-22T06:39:50.504Z,13.88
2019-05-22T06:40:50.463Z,13.90
2019-05-22T06:41:50.530Z,13.98
2019-05-22T06:42:50.478Z,13.98
2019-05-22T06:43:50.494Z,13.96
2019-05-22T06:44:50.495Z,13.90
2019-05-22T06:45:50.500Z,13.73
2019-05-22T06:46:50.502Z,13.66
2019-05-22T06:47:50.521Z,13.65
2019-05-22T06:48:50.529Z,13.55
2019-05-22T06:49:50.668Z,13.65
2019-05-22T06:50:50.540Z,13.63
2019-05-22T06:51:50.605Z,13.65
2019-05-22T06:52:50.643Z,13.62
2019-05-22T06:53:50.669Z,13.71
2019-05-22T06:54:50.844Z,13.50
2019-05-22T06:55:50.584Z,13.55
2019-05-22T06:56:50.642Z,13.54
2019-05-22T06:57:50.631Z,13.59
2019-05-22T06:58:50.684Z,13.65
2019-05-22T07:00:10.867Z,13.65
2019-05-22T07:00:50.842Z,13.62
2019-05-22T07:01:50.658Z,13.51
2019-05-22T07:02:50.631Z,13.62
2019-05-22T07:03:50.636Z,13.53
2019-05-22T07:04:50.651Z,13.59
2019-05-22T07:05:50.750Z,13.53
2019-05-22T07:06:50.665Z,13.69
2019-05-22T07:07:50.669Z,13.71
2019-05-22T07:08:50.673Z,13.81
2019-05-22T07:09:50.685Z,13.86
2019-05-22T07:10:50.691Z,13.84
2019-05-22T07:11:50.713Z,13.93
2019-05-22T07:12:51.182Z,13.90
2019-05-22T07:13:50.713Z,13.87
2019-05-22T07:14:50.725Z,13.75
2019-05-22T07:15:50.726Z,13.68
2019-05-22T07:17:50.756Z,13.50
2019-05-22T07:18:50.751Z,13.65
2019-05-22T07:19:50.766Z,13.75
2019-05-22T07:20:50.781Z,13.76
2019-05-22T07:21:50.781Z,13.63
2019-05-22T07:22:50.799Z,13.54
2019-05-22T07:23:50.789Z,13.63
2019-05-22T07:24:50.813Z,13.73
2019-05-22T07:25:50.810Z,13.71
2019-05-22T07:26:50.818Z,13.73
2019-05-22T07:27:50.832Z,13.73
2019-05-22T07:28:50.935Z,13.69
2019-05-22T07:29:50.831Z,13.75
2019-05-22T07:30:50.867Z,13.69
2019-05-22T07:31:50.850Z,13.68
2019-05-22T07:32:50.863Z,13.72
2019-05-22T07:33:50.869Z,13.81
2019-05-22T07:34:50.873Z,13.79
2019-05-22T07:36:08.479Z,13.87
2019-05-22T07:36:50.887Z,13.83
2019-05-22T07:37:50.911Z,13.99
2019-05-22T07:38:50.902Z,13.96
2019-05-22T07:39:50.910Z,14.09
2019-05-22T07:40:51.693Z,14.08
2019-05-22T07:41:50.934Z,14.20
2019-05-22T07:42:50.953Z,14.29
2019-05-22T07:43:50.950Z,14.45
2019-05-22T07:44:50.948Z,14.26
2019-05-22T07:45:50.961Z,14.24
2019-05-22T07:46:50.968Z,14.30
2019-05-22T07:47:50.972Z,14.39
2019-05-22T07:48:50.974Z,14.31
2019-05-22T07:49:50.998Z,14.45
2019-05-22T07:50:51.106Z,14.38
2019-05-22T07:51:58.873Z,14.49
2019-05-22T07:52:51.007Z,14.46
2019-05-22T07:53:51.015Z,14.42
2019-05-22T07:54:51.028Z,14.46
2019-05-22T07:55:51.062Z,14.57
2019-05-22T07:56:51.045Z,14.60
2019-05-22T07:57:51.051Z,14.63
2019-05-22T07:58:51.111Z,14.64
2019-05-22T07:59:51.061Z,14.67
2019-05-22T08:00:51.093Z,14.63
2019-05-22T08:01:51.096Z,14.54
2019-05-22T08:02:51.133Z,14.63
2019-05-22T08:03:51.102Z,14.54
2019-05-22T08:04:51.116Z,14.52
2019-05-22T08:05:51.148Z,14.63
2019-05-22T08:06:51.127Z,14.79
2019-05-22T08:07:51.150Z,14.83
2019-05-22T08:08:51.162Z,14.83
2019-05-22T08:09:51.159Z,14.80
2019-05-22T08:10:51.151Z,14.72
2019-05-22T08:11:51.517Z,14.82
2019-05-22T08:12:51.178Z,14.64
2019-05-22T08:13:51.169Z,14.57
2019-05-22T08:14:51.223Z,14.75
2019-05-22T08:15:51.197Z,14.80
2019-05-22T08:16:51.197Z,14.85
2019-05-22T08:17:53.995Z,14.94
2019-05-22T08:18:51.269Z,14.93
2019-05-22T08:19:51.247Z,14.94
2019-05-22T08:20:51.234Z,14.90
2019-05-22T08:22:04.673Z,14.82
2019-05-22T08:22:51.259Z,14.91
2019-05-22T08:23:51.260Z,14.95
2019-05-22T08:24:51.270Z,15.03
2019-05-22T08:25:51.282Z,15.00
2019-05-22T08:26:54.477Z,15.03
2019-05-22T08:27:51.293Z,15.04
2019-05-22T08:28:51.636Z,14.93
2019-05-22T08:29:51.314Z,15.12
2019-05-22T08:30:51.318Z,14.91
2019-05-22T08:31:51.332Z,14.86
2019-05-22T08:32:51.337Z,14.67
2019-05-22T08:33:51.350Z,14.66
2019-05-22T08:34:51.358Z,14.67
2019-05-22T08:35:51.368Z,14.67
2019-05-22T08:36:51.373Z,14.78
2019-05-22T08:37:51.385Z,14.63
2019-05-22T08:38:51.381Z,14.83
2019-05-22T08:39:51.415Z,14.80
2019-05-22T08:40:51.409Z,14.85
2019-05-22T08:41:51.496Z,14.82
2019-05-22T08:42:51.487Z,14.63
2019-05-22T08:44:13.616Z,14.45
2019-05-22T08:44:51.442Z,14.38
2019-05-22T08:45:51.573Z,14.31
2019-05-22T08:46:51.508Z,14.31
2019-05-22T08:47:51.468Z,14.27
2019-05-22T08:48:51.534Z,14.26
2019-05-22T08:49:51.486Z,14.31
2019-05-22T08:50:51.500Z,14.34
2019-05-22T08:51:51.502Z,14.31
2019-05-22T08:52:51.509Z,14.30
2019-05-22T08:53:51.515Z,14.20
2019-05-22T08:54:51.516Z,14.11
2019-05-22T08:55:51.536Z,14.08
2019-05-22T08:56:51.598Z,14.05
2019-05-22T08:57:51.561Z,14.09
2019-05-22T08:58:51.560Z,14.20
2019-05-22T08:59:51.570Z,14.05
2019-05-22T09:00:51.572Z,14.06
2019-05-22T09:01:51.585Z,14.09
2019-05-22T09:02:51.595Z,14.06
2019-05-22T09:03:51.712Z,14.11
2019-05-22T09:04:51.613Z,14.24
2019-05-22T09:05:52.122Z,14.30
2019-05-22T09:06:51.650Z,14.34
2019-05-22T09:07:51.638Z,14.23
2019-05-22T09:08:51.639Z,14.26
2019-05-22T09:09:51.646Z,14.21
2019-05-22T09:10:51.657Z,14.23
2019-05-22T09:11:51.662Z,14.45
2019-05-22T09:12:51.693Z,14.46
2019-05-22T09:13:51.700Z,14.41
2019-05-22T09:14:51.689Z,14.42
2019-05-22T09:15:51.701Z,14.44
2019-05-22T09:16:51.713Z,14.46
2019-05-22T09:17:51.719Z,14.45
2019-05-22T09:18:51.803Z,14.49
2019-05-22T09:19:51.794Z,14.52
2019-05-22T09:20:51.736Z,14.61
2019-05-22T09:21:51.744Z,14.69
2019-05-22T09:22:51.755Z,14.87
2019-05-22T09:23:51.772Z,14.95
2019-05-22T09:24:51.783Z,15.00
2019-05-22T09:25:51.803Z,14.91
2019-05-22T09:26:51.835Z,14.94
2019-05-22T09:27:51.802Z,15.00
2019-05-22T09:28:51.816Z,14.94
2019-05-22T09:29:51.808Z,15.01
2019-05-22T09:30:51.833Z,15.09
2019-05-22T09:31:51.833Z,15.09
2019-05-22T09:32:51.845Z,14.93
2019-05-22T09:33:51.864Z,15.00
2019-05-22T09:34:51.860Z,15.19
2019-05-22T09:35:51.930Z,15.18
2019-05-22T09:36:51.882Z,15.19
2019-05-22T09:37:51.887Z,15.25
2019-05-22T09:38:52.806Z,15.27
2019-05-22T09:39:51.958Z,15.09
2019-05-22T09:40:51.909Z,15.07
2019-05-22T09:41:51.925Z,14.97
2019-05-22T09:42:51.935Z,14.78
2019-05-22T09:43:52.007Z,14.82
2019-05-22T09:44:52.059Z,14.80
2019-05-22T09:45:51.960Z,15.00
2019-05-22T09:46:51.962Z,15.04
2019-05-22T09:47:51.978Z,15.27
2019-05-22T09:48:51.982Z,15.28
2019-05-22T09:49:51.994Z,15.48
2019-05-22T09:50:52.014Z,15.64
2019-05-22T09:51:52.026Z,15.62
2019-05-22T09:52:57.652Z,15.66
2019-05-22T09:53:52.034Z,15.73
2019-05-22T09:54:52.087Z,15.78
2019-05-22T09:55:52.057Z,15.76
2019-05-22T09:56:52.057Z,15.88
2019-05-22T09:57:52.072Z,15.96
2019-05-22T09:58:52.089Z,15.99
2019-05-22T09:59:52.085Z,16.10
2019-05-22T10:00:52.110Z,16.08
2019-05-22T10:01:52.108Z,16.36
2019-05-22T10:02:52.115Z,16.55
2019-05-22T10:03:52.120Z,16.63
2019-05-22T10:04:52.129Z,16.57
2019-05-22T10:05:52.278Z,16.66
2019-05-22T10:06:52.164Z,16.65
2019-05-22T10:08:00.435Z,16.78
2019-05-22T10:08:52.180Z,16.91
2019-05-22T10:09:52.190Z,17.00
2019-05-22T10:10:53.160Z,17.05
2019-05-22T10:11:52.213Z,17.07
2019-05-22T10:12:52.220Z,17.17
2019-05-22T10:13:52.347Z,17.24
2019-05-22T10:14:52.500Z,17.28
2019-05-22T10:15:52.256Z,17.36
2019-05-22T10:16:52.269Z,17.33
2019-05-22T10:17:52.305Z,17.38
2019-05-22T10:18:53.611Z,17.53
2019-05-22T10:19:52.300Z,17.55
2019-05-22T10:20:52.323Z,17.38
2019-05-22T10:21:52.335Z,17.30
2019-05-22T10:22:52.369Z,17.25
2019-05-22T10:23:52.343Z,17.03
2019-05-22T10:24:52.366Z,16.88
2019-05-22T10:25:52.378Z,17.25
2019-05-22T10:26:52.400Z,17.68
2019-05-22T10:27:52.398Z,18.25
2019-05-22T10:28:52.409Z,18.51
2019-05-22T10:29:52.427Z,18.56
2019-05-22T10:30:52.785Z,19.27
2019-05-22T10:31:52.447Z,19.46
2019-05-22T10:32:52.464Z,18.89
2019-05-22T10:33:52.592Z,18.76
2019-05-22T10:34:52.490Z,18.72
2019-05-22T10:35:52.505Z,18.59
2019-05-22T10:36:52.510Z,18.39
2019-05-22T10:38:52.550Z,18.39
2019-05-22T10:39:52.551Z,18.35
2019-05-22T10:40:52.562Z,18.42
2019-05-22T10:41:52.578Z,18.29
2019-05-22T10:42:52.696Z,18.35
2019-05-22T10:43:52.614Z,18.11
2019-05-22T10:44:52.610Z,18.04
2019-05-22T10:45:52.624Z,17.98
2019-05-22T10:46:52.643Z,18.44
2019-05-22T10:47:52.653Z,18.79
2019-05-22T10:48:52.655Z,18.91
2019-05-22T10:49:52.690Z,19.61
2019-05-22T10:50:52.690Z,20.26
2019-05-22T10:51:52.704Z,20.76
2019-05-22T10:52:54.545Z,21.12
2019-05-22T10:53:52.729Z,21.55
2019-05-22T10:54:55.938Z,21.94
2019-05-22T10:55:52.772Z,22.54
2019-05-22T10:56:52.780Z,23.11
2019-05-22T10:57:52.806Z,23.31
2019-05-22T10:58:52.818Z,23.26
2019-05-22T10:59:52.818Z,23.81
2019-05-22T11:00:52.844Z,24.05
2019-05-22T11:01:52.856Z,24.34
2019-05-22T11:02:52.872Z,24.36
2019-05-22T11:03:52.888Z,23.60
2019-05-22T11:04:52.905Z,22.36
2019-05-22T11:06:06.462Z,22.30
2019-05-22T11:06:52.936Z,21.83
2019-05-22T11:07:52.955Z,22.09
2019-05-22T11:08:52.978Z,22.29
2019-05-22T11:09:52.984Z,22.89
2019-05-22T11:10:53.001Z,23.49
2019-05-22T11:11:53.018Z,24.00
2019-05-22T11:12:53.038Z,23.78
2019-05-22T11:14:01.188Z,22.96
2019-05-22T11:14:53.066Z,22.29
2019-05-22T11:15:53.079Z,21.55
2019-05-22T11:16:53.110Z,22.42
2019-05-22T11:17:53.119Z,22.64
2019-05-22T11:18:53.138Z,23.37
2019-05-22T11:19:53.151Z,24.08
2019-05-22T11:20:53.151Z,24.24
2019-05-22T11:21:56.828Z,23.15
2019-05-22T11:22:53.191Z,23.18
2019-05-22T11:23:53.432Z,23.64
2019-05-22T11:24:53.216Z,24.21
2019-05-22T11:25:53.352Z,23.93
2019-05-22T11:26:53.262Z,24.30
2019-05-22T11:27:53.280Z,24.49
2019-05-22T11:28:53.283Z,24.89
2019-05-22T11:29:53.295Z,25.64
2019-05-22T11:30:53.310Z,25.79
2019-05-22T11:31:53.339Z,26.47
2019-05-22T11:32:53.357Z,26.75
2019-05-22T11:33:53.366Z,26.44
2019-05-22T11:34:53.400Z,26.38
2019-05-22T11:35:53.392Z,26.29
2019-05-22T11:36:53.440Z,25.04
2019-05-22T11:37:53.440Z,23.87
2019-05-22T11:38:53.465Z,23.21
2019-05-22T11:39:53.476Z,23.90
2019-05-22T11:40:53.487Z,24.09
2019-05-22T11:41:53.503Z,24.23
2019-05-22T11:42:53.542Z,24.26
2019-05-22T11:43:53.538Z,24.24
2019-05-22T11:44:53.580Z,24.86
2019-05-22T11:45:53.580Z,25.16
2019-05-22T11:46:53.585Z,26.19
2019-05-22T11:47:53.602Z,24.77
2019-05-22T11:48:53.648Z,25.02
2019-05-22T11:49:53.946Z,24.48
2019-05-22T11:50:53.662Z,24.27
2019-05-22T11:51:53.667Z,24.30
2019-05-22T11:52:53.692Z,24.36
2019-05-22T11:54:07.940Z,24.12
2019-05-22T11:54:53.740Z,23.38
2019-05-22T11:55:53.759Z,23.34
2019-05-22T11:56:53.754Z,24.16
2019-05-22T11:57:53.773Z,24.60
2019-05-22T11:58:53.786Z,24.89
2019-05-22T11:59:53.806Z,24.64
2019-05-22T12:00:53.818Z,24.87
2019-05-22T12:01:53.835Z,25.16
2019-05-22T12:02:53.850Z,25.71
2019-05-22T12:03:53.878Z,24.31
2019-05-22T12:04:53.970Z,23.44
2019-05-22T12:05:53.904Z,22.56
2019-05-22T12:06:54.127Z,22.02
2019-05-22T12:07:53.934Z,21.36
2019-05-22T12:08:53.952Z,21.61
2019-05-22T12:09:53.969Z,21.56
2019-05-22T12:10:53.979Z,21.09
2019-05-22T12:11:54.010Z,21.15
2019-05-22T12:12:54.013Z,21.24
2019-05-22T12:13:54.046Z,21.37
2019-05-22T12:14:54.103Z,22.15
2019-05-22T12:15:54.062Z,22.46
2019-05-22T12:16:54.099Z,22.60
2019-05-22T12:17:54.102Z,22.54
2019-05-22T12:18:54.116Z,21.82
2019-05-22T12:19:54.113Z,21.30
2019-05-22T12:20:54.133Z,21.64
2019-05-22T12:21:54.228Z,22.44
2019-05-22T12:22:54.160Z,22.49
2019-05-22T12:23:54.179Z,22.42
2019-05-22T12:24:54.198Z,22.56
2019-05-22T12:25:54.201Z,23.74
2019-05-22T12:26:54.222Z,24.71
2019-05-22T12:27:54.237Z,25.51
2019-05-22T12:28:54.243Z,25.97
2019-05-22T12:29:54.260Z,25.51
2019-05-22T12:30:54.274Z,24.53
2019-05-22T12:31:54.336Z,24.55
2019-05-22T12:32:54.323Z,24.84
2019-05-22T12:33:54.323Z,25.41
2019-05-22T12:34:54.337Z,26.11
2019-05-22T12:35:54.368Z,26.76
2019-05-22T12:36:54.374Z,26.53
2019-05-22T12:37:54.392Z,26.50
2019-05-22T12:38:54.405Z,26.39
2019-05-22T12:39:54.421Z,26.42
2019-05-22T12:40:54.436Z,26.72
2019-05-22T12:41:54.456Z,26.56
2019-05-22T12:42:54.469Z,26.76
2019-05-22T12:43:54.499Z,26.78
2019-05-22T12:44:54.510Z,26.39
2019-05-22T12:45:54.521Z,26.31
2019-05-22T12:46:54.606Z,26.04
2019-05-22T12:47:54.562Z,25.24
2019-05-22T12:48:54.574Z,24.08
2019-05-22T12:49:54.619Z,24.24
2019-05-22T12:50:54.609Z,24.55
2019-05-22T12:51:54.636Z,24.59
2019-05-22T12:52:54.640Z,24.66
2019-05-22T12:53:54.655Z,25.83
2019-05-22T12:54:54.679Z,26.76
2019-05-22T12:55:54.693Z,27.42